sensor_id;sensor_type;location;lat;lon;timestamp;temperature;humidity
15819;DHT22;8010;53.986;12.106;2022-10-16T00:01:26;15.20;99.90
15819;DHT22;8010;53.986;12.106;2022-10-16T00:03:52;16.40;99.90
15819;DHT22;8010;53.986;12.106;2022-10-16T00:06:19;15.10;99.90
15819;DHT22;8010;53.986;12.106;2022-10-16T00:08:46;15.10;99.90
15819;DHT22;8010;53.986;12.106;2022-10-16T00:11:18;15.10;99.90
15819;DHT22;8010;53.986;12.106;2022-10-16T00:13:45;15.00;99.90
15819;DHT22;8010;53.986;12.106;2022-10-16T00:16:12;14.90;99.90
15819;DHT22;8010;53.986;12.106;2022-10-16T00:18:38;14.90;99.90
15819;DHT22;8010;53.986;12.106;2022-10-16T00:21:07;14.90;99.90
15819;DHT22;8010;53.986;12.106;2022-10-16T00:23:33;14.80;99.90
15819;DHT22;8010;53.986;12.106;2022-10-16T00:26:02;14.80;99.90
15819;DHT22;8010;53.986;12.106;2022-10-16T00:28:28;14.80;99.90
15819;DHT22;8010;53.986;12.106;2022-10-16T00:30:54;14.80;99.90
15819;DHT22;8010;53.986;12.106;2022-10-16T00:33:20;14.80;99.90
15819;DHT22;8010;53.986;12.106;2022-10-16T00:35:46;14.80;99.90
15819;DHT22;8010;53.986;12.106;2022-10-16T00:38:12;14.80;99.90
15819;DHT22;8010;53.986;12.106;2022-10-16T00:40:38;14.90;99.90
15819;DHT22;8010;53.986;12.106;2022-10-16T00:43:12;14.70;99.90
15819;DHT22;8010;53.986;12.106;2022-10-16T00:45:38;14.70;99.90
15819;DHT22;8010;53.986;12.106;2022-10-16T00:48:03;14.70;99.90
15819;DHT22;8010;53.986;12.106;2022-10-16T00:50:32;14.70;99.90
15819;DHT22;8010;53.986;12.106;2022-10-16T00:52:59;14.70;99.90
15819;DHT22;8010;53.986;12.106;2022-10-16T00:55:26;14.70;99.90
15819;DHT22;8010;53.986;12.106;2022-10-16T00:57:53;14.70;99.90
15819;DHT22;8010;53.986;12.106;2022-10-16T01:00:24;14.60;99.90
15819;DHT22;8010;53.986;12.106;2022-10-16T01:02:59;14.60;99.90
15819;DHT22;8010;53.986;12.106;2022-10-16T01:05:47;14.60;99.90
15819;DHT22;8010;53.986;12.106;2022-10-16T01:08:21;14.60;99.90
15819;DHT22;8010;53.986;12.106;2022-10-16T01:11:03;14.60;99.90
15819;DHT22;8010;53.986;12.106;2022-10-16T01:13:38;14.60;99.90
15819;DHT22;8010;53.986;12.106;2022-10-16T01:16:09;14.50;99.90
15819;DHT22;8010;53.986;12.106;2022-10-16T01:18:59;14.50;99.90
15819;DHT22;8010;53.986;12.106;2022-10-16T01:21:29;14.50;99.90
15819;DHT22;8010;53.986;12.106;2022-10-16T01:35:18;14.40;99.90
15819;DHT22;8010;53.986;12.106;2022-10-16T01:38:00;14.40;99.90
15819;DHT22;8010;53.986;12.106;2022-10-16T01:40:28;14.40;99.90
15819;DHT22;8010;53.986;12.106;2022-10-16T01:43:00;14.40;99.90
15819;DHT22;8010;53.986;12.106;2022-10-16T01:45:28;14.30;99.90
15819;DHT22;8010;53.986;12.106;2022-10-16T01:47:55;14.30;99.90
15819;DHT22;8010;53.986;12.106;2022-10-16T01:50:21;14.30;99.90
15819;DHT22;8010;53.986;12.106;2022-10-16T01:52:51;14.30;99.90
15819;DHT22;8010;53.986;12.106;2022-10-16T01:55:26;14.30;99.90
15819;DHT22;8010;53.986;12.106;2022-10-16T01:57:55;14.20;99.90
15819;DHT22;8010;53.986;12.106;2022-10-16T02:00:22;14.20;99.90
15819;DHT22;8010;53.986;12.106;2022-10-16T02:02:50;14.20;99.90
15819;DHT22;8010;53.986;12.106;2022-10-16T02:05:30;14.20;99.90
15819;DHT22;8010;53.986;12.106;2022-10-16T02:07:56;14.20;99.90
15819;DHT22;8010;53.986;12.106;2022-10-16T02:10:23;14.20;99.90
15819;DHT22;8010;53.986;12.106;2022-10-16T02:13:01;14.20;99.90
15819;DHT22;8010;53.986;12.106;2022-10-16T02:15:27;14.10;99.90
15819;DHT22;8010;53.986;12.106;2022-10-16T02:17:52;14.10;99.90
15819;DHT22;8010;53.986;12.106;2022-10-16T02:20:22;14.10;99.90
15819;DHT22;8010;53.986;12.106;2022-10-16T02:22:50;15.90;99.90
15819;DHT22;8010;53.986;12.106;2022-10-16T02:25:38;14.10;99.90
15819;DHT22;8010;53.986;12.106;2022-10-16T02:28:19;14.00;99.90
15819;DHT22;8010;53.986;12.106;2022-10-16T02:31:03;14.00;99.90
15819;DHT22;8010;53.986;12.106;2022-10-16T02:33:30;14.00;99.90
15819;DHT22;8010;53.986;12.106;2022-10-16T02:35:57;14.00;99.90
15819;DHT22;8010;53.986;12.106;2022-10-16T02:38:23;14.00;99.90
15819;DHT22;8010;53.986;12.106;2022-10-16T02:40:50;14.00;99.90
15819;DHT22;8010;53.986;12.106;2022-10-16T02:43:16;14.00;99.90
15819;DHT22;8010;53.986;12.106;2022-10-16T02:45:42;14.00;99.90
15819;DHT22;8010;53.986;12.106;2022-10-16T02:48:07;14.00;99.90
15819;DHT22;8010;53.986;12.106;2022-10-16T02:50:33;14.00;99.90
15819;DHT22;8010;53.986;12.106;2022-10-16T02:52:59;14.00;99.90
15819;DHT22;8010;53.986;12.106;2022-10-16T02:55:24;14.00;99.90
15819;DHT22;8010;53.986;12.106;2022-10-16T02:57:50;14.30;99.90
15819;DHT22;8010;53.986;12.106;2022-10-16T03:00:16;13.90;99.90
15819;DHT22;8010;53.986;12.106;2022-10-16T03:02:43;14.00;99.90
15819;DHT22;8010;53.986;12.106;2022-10-16T03:05:09;13.90;99.90
15819;DHT22;8010;53.986;12.106;2022-10-16T03:07:35;13.90;99.90
15819;DHT22;8010;53.986;12.106;2022-10-16T03:10:00;13.90;99.90
15819;DHT22;8010;53.986;12.106;2022-10-16T03:12:29;13.90;99.90
15819;DHT22;8010;53.986;12.106;2022-10-16T03:14:56;13.90;99.90
15819;DHT22;8010;53.986;12.106;2022-10-16T03:17:22;13.80;99.90
15819;DHT22;8010;53.986;12.106;2022-10-16T03:19:48;13.90;99.90
15819;DHT22;8010;53.986;12.106;2022-10-16T03:22:13;13.80;99.90
15819;DHT22;8010;53.986;12.106;2022-10-16T03:24:39;13.80;99.90
15819;DHT22;8010;53.986;12.106;2022-10-16T03:27:04;13.70;99.90
15819;DHT22;8010;53.986;12.106;2022-10-16T03:29:30;13.70;99.90
15819;DHT22;8010;53.986;12.106;2022-10-16T03:31:57;13.70;99.90
15819;DHT22;8010;53.986;12.106;2022-10-16T03:34:22;13.70;99.90
15819;DHT22;8010;53.986;12.106;2022-10-16T03:36:48;13.60;99.90
15819;DHT22;8010;53.986;12.106;2022-10-16T03:39:14;13.60;99.90
15819;DHT22;8010;53.986;12.106;2022-10-16T03:41:39;13.60;99.90
15819;DHT22;8010;53.986;12.106;2022-10-16T03:44:05;13.50;99.90
15819;DHT22;8010;53.986;12.106;2022-10-16T03:46:31;13.50;99.90
15819;DHT22;8010;53.986;12.106;2022-10-16T03:48:56;13.50;99.90
15819;DHT22;8010;53.986;12.106;2022-10-16T03:51:22;13.50;99.90
15819;DHT22;8010;53.986;12.106;2022-10-16T03:53:47;13.50;99.90
15819;DHT22;8010;53.986;12.106;2022-10-16T03:56:13;13.50;99.90
15819;DHT22;8010;53.986;12.106;2022-10-16T03:58:38;13.40;99.90
15819;DHT22;8010;53.986;12.106;2022-10-16T04:01:04;13.40;99.90
15819;DHT22;8010;53.986;12.106;2022-10-16T04:03:30;13.40;99.90
15819;DHT22;8010;53.986;12.106;2022-10-16T04:05:55;13.40;99.90
15819;DHT22;8010;53.986;12.106;2022-10-16T04:08:21;13.70;99.90
15819;DHT22;8010;53.986;12.106;2022-10-16T04:10:46;13.30;99.90
15819;DHT22;8010;53.986;12.106;2022-10-16T04:13:12;13.30;99.90
15819;DHT22;8010;53.986;12.106;2022-10-16T04:15:38;13.30;99.90
15819;DHT22;8010;53.986;12.106;2022-10-16T04:18:04;13.20;99.90
15819;DHT22;8010;53.986;12.106;2022-10-16T04:20:30;13.10;99.90
15819;DHT22;8010;53.986;12.106;2022-10-16T04:22:55;13.10;99.90
15819;DHT22;8010;53.986;12.106;2022-10-16T04:25:23;13.10;99.90
15819;DHT22;8010;53.986;12.106;2022-10-16T04:27:49;13.00;99.90
15819;DHT22;8010;53.986;12.106;2022-10-16T04:30:14;13.00;99.90
15819;DHT22;8010;53.986;12.106;2022-10-16T04:32:40;12.90;99.90
15819;DHT22;8010;53.986;12.106;2022-10-16T04:35:06;13.00;99.90
15819;DHT22;8010;53.986;12.106;2022-10-16T04:37:32;12.90;99.90
15819;DHT22;8010;53.986;12.106;2022-10-16T04:39:57;12.80;99.90
15819;DHT22;8010;53.986;12.106;2022-10-16T04:42:23;12.90;99.90
15819;DHT22;8010;53.986;12.106;2022-10-16T04:44:48;12.80;99.90
15819;DHT22;8010;53.986;12.106;2022-10-16T04:47:14;12.80;99.90
15819;DHT22;8010;53.986;12.106;2022-10-16T04:49:40;12.80;99.90
15819;DHT22;8010;53.986;12.106;2022-10-16T04:52:06;12.80;99.90
15819;DHT22;8010;53.986;12.106;2022-10-16T04:54:31;12.70;99.90
15819;DHT22;8010;53.986;12.106;2022-10-16T04:56:57;12.70;99.90
15819;DHT22;8010;53.986;12.106;2022-10-16T04:59:22;12.60;99.90
15819;DHT22;8010;53.986;12.106;2022-10-16T05:01:48;12.60;99.90
15819;DHT22;8010;53.986;12.106;2022-10-16T05:04:14;12.60;99.90
15819;DHT22;8010;53.986;12.106;2022-10-16T05:06:41;12.60;99.90
15819;DHT22;8010;53.986;12.106;2022-10-16T05:09:07;12.50;99.90
15819;DHT22;8010;53.986;12.106;2022-10-16T05:11:33;12.50;99.90
15819;DHT22;8010;53.986;12.106;2022-10-16T05:14:00;12.50;99.90
15819;DHT22;8010;53.986;12.106;2022-10-16T05:16:25;12.50;99.90
15819;DHT22;8010;53.986;12.106;2022-10-16T05:18:52;12.50;99.90
15819;DHT22;8010;53.986;12.106;2022-10-16T05:21:17;12.40;99.90
15819;DHT22;8010;53.986;12.106;2022-10-16T05:23:43;12.40;99.90
15819;DHT22;8010;53.986;12.106;2022-10-16T05:26:09;12.40;99.90
15819;DHT22;8010;53.986;12.106;2022-10-16T05:28:35;12.40;99.90
15819;DHT22;8010;53.986;12.106;2022-10-16T05:31:05;12.40;99.90
15819;DHT22;8010;53.986;12.106;2022-10-16T05:33:31;12.30;99.90
15819;DHT22;8010;53.986;12.106;2022-10-16T05:35:56;12.30;99.90
15819;DHT22;8010;53.986;12.106;2022-10-16T05:38:22;12.30;99.90
15819;DHT22;8010;53.986;12.106;2022-10-16T05:40:51;12.30;99.90
15819;DHT22;8010;53.986;12.106;2022-10-16T05:43:18;12.30;99.90
15819;DHT22;8010;53.986;12.106;2022-10-16T05:45:43;12.30;99.90
15819;DHT22;8010;53.986;12.106;2022-10-16T05:48:09;12.30;99.90
15819;DHT22;8010;53.986;12.106;2022-10-16T05:50:34;12.30;99.90
15819;DHT22;8010;53.986;12.106;2022-10-16T05:53:00;12.30;99.90
15819;DHT22;8010;53.986;12.106;2022-10-16T05:55:25;12.30;99.90
15819;DHT22;8010;53.986;12.106;2022-10-16T05:57:54;12.30;99.90
15819;DHT22;8010;53.986;12.106;2022-10-16T06:00:20;12.20;99.90
15819;DHT22;8010;53.986;12.106;2022-10-16T06:02:45;12.20;99.90
15819;DHT22;8010;53.986;12.106;2022-10-16T06:05:11;12.20;99.90
15819;DHT22;8010;53.986;12.106;2022-10-16T06:07:36;12.20;99.90
15819;DHT22;8010;53.986;12.106;2022-10-16T06:10:03;12.20;99.90
15819;DHT22;8010;53.986;12.106;2022-10-16T06:12:29;12.20;99.90
15819;DHT22;8010;53.986;12.106;2022-10-16T06:14:54;12.20;99.90
15819;DHT22;8010;53.986;12.106;2022-10-16T06:17:20;12.30;99.90
15819;DHT22;8010;53.986;12.106;2022-10-16T06:19:45;12.30;99.90
15819;DHT22;8010;53.986;12.106;2022-10-16T06:22:11;12.30;99.90
15819;DHT22;8010;53.986;12.106;2022-10-16T06:24:36;12.30;99.90
15819;DHT22;8010;53.986;12.106;2022-10-16T06:27:03;12.40;99.90
15819;DHT22;8010;53.986;12.106;2022-10-16T06:29:29;12.50;99.90
15819;DHT22;8010;53.986;12.106;2022-10-16T06:31:54;12.50;99.90
15819;DHT22;8010;53.986;12.106;2022-10-16T06:34:20;12.50;99.90
15819;DHT22;8010;53.986;12.106;2022-10-16T06:36:45;12.60;99.90
15819;DHT22;8010;53.986;12.106;2022-10-16T06:39:11;12.60;99.90
15819;DHT22;8010;53.986;12.106;2022-10-16T06:41:36;12.60;99.90
15819;DHT22;8010;53.986;12.106;2022-10-16T06:44:06;12.60;99.90
15819;DHT22;8010;53.986;12.106;2022-10-16T06:46:32;12.60;99.90
15819;DHT22;8010;53.986;12.106;2022-10-16T06:48:57;12.70;99.90
15819;DHT22;8010;53.986;12.106;2022-10-16T06:51:24;12.70;99.90
15819;DHT22;8010;53.986;12.106;2022-10-16T06:53:54;13.80;99.90
15819;DHT22;8010;53.986;12.106;2022-10-16T06:56:24;12.60;99.90
15819;DHT22;8010;53.986;12.106;2022-10-16T06:58:51;12.70;99.90
15819;DHT22;8010;53.986;12.106;2022-10-16T07:01:19;12.70;99.90
15819;DHT22;8010;53.986;12.106;2022-10-16T07:03:45;12.70;99.90
15819;DHT22;8010;53.986;12.106;2022-10-16T07:06:14;12.60;99.90
15819;DHT22;8010;53.986;12.106;2022-10-16T07:08:42;12.60;99.90
15819;DHT22;8010;53.986;12.106;2022-10-16T07:11:10;12.70;99.90
15819;DHT22;8010;53.986;12.106;2022-10-16T07:13:36;12.70;99.90
15819;DHT22;8010;53.986;12.106;2022-10-16T07:16:07;12.70;99.90
15819;DHT22;8010;53.986;12.106;2022-10-16T07:18:33;12.70;99.90
15819;DHT22;8010;53.986;12.106;2022-10-16T07:21:18;12.70;99.90
15819;DHT22;8010;53.986;12.106;2022-10-16T07:23:44;12.70;99.90
15819;DHT22;8010;53.986;12.106;2022-10-16T07:26:10;12.80;99.90
15819;DHT22;8010;53.986;12.106;2022-10-16T07:28:37;12.80;99.90
15819;DHT22;8010;53.986;12.106;2022-10-16T07:31:04;12.70;99.90
15819;DHT22;8010;53.986;12.106;2022-10-16T07:33:30;12.70;99.90
15819;DHT22;8010;53.986;12.106;2022-10-16T07:35:56;12.70;99.90
15819;DHT22;8010;53.986;12.106;2022-10-16T07:38:22;12.70;99.90
15819;DHT22;8010;53.986;12.106;2022-10-16T07:40:48;12.80;99.90
15819;DHT22;8010;53.986;12.106;2022-10-16T07:43:14;12.90;99.90
15819;DHT22;8010;53.986;12.106;2022-10-16T07:45:49;13.10;99.90
15819;DHT22;8010;53.986;12.106;2022-10-16T07:48:16;13.20;99.90
15819;DHT22;8010;53.986;12.106;2022-10-16T07:50:42;13.40;99.90
15819;DHT22;8010;53.986;12.106;2022-10-16T07:53:08;13.60;99.90
15819;DHT22;8010;53.986;12.106;2022-10-16T07:55:34;13.90;99.90
15819;DHT22;8010;53.986;12.106;2022-10-16T07:57:59;14.20;99.90
15819;DHT22;8010;53.986;12.106;2022-10-16T08:00:25;14.40;99.90
15819;DHT22;8010;53.986;12.106;2022-10-16T08:02:50;14.70;99.90
15819;DHT22;8010;53.986;12.106;2022-10-16T08:05:16;15.00;99.90
15819;DHT22;8010;53.986;12.106;2022-10-16T08:07:41;15.10;99.90
15819;DHT22;8010;53.986;12.106;2022-10-16T08:10:20;15.30;99.90
15819;DHT22;8010;53.986;12.106;2022-10-16T08:12:47;15.40;99.90
15819;DHT22;8010;53.986;12.106;2022-10-16T08:15:13;15.50;99.90
15819;DHT22;8010;53.986;12.106;2022-10-16T08:17:38;15.60;99.90
15819;DHT22;8010;53.986;12.106;2022-10-16T08:20:04;15.60;99.90
15819;DHT22;8010;53.986;12.106;2022-10-16T08:22:30;15.70;99.90
15819;DHT22;8010;53.986;12.106;2022-10-16T08:24:55;15.80;99.90
15819;DHT22;8010;53.986;12.106;2022-10-16T08:27:21;15.90;99.90
15819;DHT22;8010;53.986;12.106;2022-10-16T08:29:48;16.00;99.90
15819;DHT22;8010;53.986;12.106;2022-10-16T08:32:14;16.20;99.90
15819;DHT22;8010;53.986;12.106;2022-10-16T08:34:39;16.30;99.90
15819;DHT22;8010;53.986;12.106;2022-10-16T08:37:05;16.20;99.90
15819;DHT22;8010;53.986;12.106;2022-10-16T08:39:30;16.20;99.90
15819;DHT22;8010;53.986;12.106;2022-10-16T08:44:40;16.20;99.90
15819;DHT22;8010;53.986;12.106;2022-10-16T08:47:23;16.30;99.90
15819;DHT22;8010;53.986;12.106;2022-10-16T08:50:09;16.30;99.90
15819;DHT22;8010;53.986;12.106;2022-10-16T08:52:40;16.30;99.90
15819;DHT22;8010;53.986;12.106;2022-10-16T08:55:08;16.20;99.90
15819;DHT22;8010;53.986;12.106;2022-10-16T08:57:41;16.20;99.90
15819;DHT22;8010;53.986;12.106;2022-10-16T09:00:13;16.00;99.90
15819;DHT22;8010;53.986;12.106;2022-10-16T09:02:44;16.00;99.90
15819;DHT22;8010;53.986;12.106;2022-10-16T09:07:57;16.00;99.90
15819;DHT22;8010;53.986;12.106;2022-10-16T09:13:40;16.00;99.90
15819;DHT22;8010;53.986;12.106;2022-10-16T09:16:28;16.20;99.90
15819;DHT22;8010;53.986;12.106;2022-10-16T09:19:15;16.30;99.90
15819;DHT22;8010;53.986;12.106;2022-10-16T09:21:44;16.50;99.90
15819;DHT22;8010;53.986;12.106;2022-10-16T09:24:14;16.70;99.90
15819;DHT22;8010;53.986;12.106;2022-10-16T09:26:42;16.90;99.90
15819;DHT22;8010;53.986;12.106;2022-10-16T09:29:13;16.90;99.90
15819;DHT22;8010;53.986;12.106;2022-10-16T09:31:38;16.90;99.90
15819;DHT22;8010;53.986;12.106;2022-10-16T09:34:05;16.90;99.90
15819;DHT22;8010;53.986;12.106;2022-10-16T09:36:40;16.90;99.90
15819;DHT22;8010;53.986;12.106;2022-10-16T09:39:09;16.90;99.90
15819;DHT22;8010;53.986;12.106;2022-10-16T09:41:38;16.70;99.90
15819;DHT22;8010;53.986;12.106;2022-10-16T09:44:15;16.70;99.90
15819;DHT22;8010;53.986;12.106;2022-10-16T09:46:42;16.70;99.90
15819;DHT22;8010;53.986;12.106;2022-10-16T09:49:25;16.60;99.90
15819;DHT22;8010;53.986;12.106;2022-10-16T09:52:02;16.60;99.90
15819;DHT22;8010;53.986;12.106;2022-10-16T09:54:27;16.70;99.90
15819;DHT22;8010;53.986;12.106;2022-10-16T09:57:04;16.80;99.90
15819;DHT22;8010;53.986;12.106;2022-10-16T09:59:31;16.90;99.90
15819;DHT22;8010;53.986;12.106;2022-10-16T10:02:00;17.20;99.90
15819;DHT22;8010;53.986;12.106;2022-10-16T10:04:41;17.40;99.90
15819;DHT22;8010;53.986;12.106;2022-10-16T10:07:18;17.70;99.90
15819;DHT22;8010;53.986;12.106;2022-10-16T10:09:45;18.00;99.90
15819;DHT22;8010;53.986;12.106;2022-10-16T10:12:26;18.20;99.90
15819;DHT22;8010;53.986;12.106;2022-10-16T10:14:55;18.30;99.90
15819;DHT22;8010;53.986;12.106;2022-10-16T10:17:26;18.50;99.90
15819;DHT22;8010;53.986;12.106;2022-10-16T10:19:54;18.60;99.90
15819;DHT22;8010;53.986;12.106;2022-10-16T10:30:22;19.00;99.90
15819;DHT22;8010;53.986;12.106;2022-10-16T10:38:25;19.10;99.90
15819;DHT22;8010;53.986;12.106;2022-10-16T10:44:37;19.30;99.90
15819;DHT22;8010;53.986;12.106;2022-10-16T11:08:43;19.90;99.90
15819;DHT22;8010;53.986;12.106;2022-10-16T11:11:15;20.00;99.90
15819;DHT22;8010;53.986;12.106;2022-10-16T11:16:19;20.00;99.90
15819;DHT22;8010;53.986;12.106;2022-10-16T11:18:55;19.90;99.90
15819;DHT22;8010;53.986;12.106;2022-10-16T11:21:23;20.00;99.90
15819;DHT22;8010;53.986;12.106;2022-10-16T11:24:01;20.20;99.90
15819;DHT22;8010;53.986;12.106;2022-10-16T11:26:35;20.30;99.90
15819;DHT22;8010;53.986;12.106;2022-10-16T11:29:05;20.20;99.90
15819;DHT22;8010;53.986;12.106;2022-10-16T11:31:43;20.40;99.90
15819;DHT22;8010;53.986;12.106;2022-10-16T11:37:12;20.30;99.90
15819;DHT22;8010;53.986;12.106;2022-10-16T11:39:39;20.50;99.90
15819;DHT22;8010;53.986;12.106;2022-10-16T11:44:57;20.50;99.90
15819;DHT22;8010;53.986;12.106;2022-10-16T11:47:45;20.60;99.90
15819;DHT22;8010;53.986;12.106;2022-10-16T11:50:39;20.40;99.90
15819;DHT22;8010;53.986;12.106;2022-10-16T11:55:46;20.50;99.90
15819;DHT22;8010;53.986;12.106;2022-10-16T11:58:20;20.40;99.90
15819;DHT22;8010;53.986;12.106;2022-10-16T12:00:59;20.50;99.90
15819;DHT22;8010;53.986;12.106;2022-10-16T12:03:28;20.70;99.90
15819;DHT22;8010;53.986;12.106;2022-10-16T12:08:39;20.90;99.90
15819;DHT22;8010;53.986;12.106;2022-10-16T12:11:24;20.90;99.90
15819;DHT22;8010;53.986;12.106;2022-10-16T12:13:50;20.90;99.90
15819;DHT22;8010;53.986;12.106;2022-10-16T12:18:45;21.30;99.90
15819;DHT22;8010;53.986;12.106;2022-10-16T12:21:12;21.30;99.90
15819;DHT22;8010;53.986;12.106;2022-10-16T12:23:52;21.40;99.90
15819;DHT22;8010;53.986;12.106;2022-10-16T12:26:31;21.70;99.90
15819;DHT22;8010;53.986;12.106;2022-10-16T12:29:13;21.50;99.90
15819;DHT22;8010;53.986;12.106;2022-10-16T12:31:44;21.40;99.90
15819;DHT22;8010;53.986;12.106;2022-10-16T12:34:38;21.40;99.90
15819;DHT22;8010;53.986;12.106;2022-10-16T12:37:10;21.40;99.90
15819;DHT22;8010;53.986;12.106;2022-10-16T12:39:36;21.60;99.90
15819;DHT22;8010;53.986;12.106;2022-10-16T12:42:05;21.90;99.90
15819;DHT22;8010;53.986;12.106;2022-10-16T12:44:35;21.90;99.90
15819;DHT22;8010;53.986;12.106;2022-10-16T12:47:02;21.60;99.90
15819;DHT22;8010;53.986;12.106;2022-10-16T12:51:54;21.30;99.90
15819;DHT22;8010;53.986;12.106;2022-10-16T12:57:19;21.50;99.90
15819;DHT22;8010;53.986;12.106;2022-10-16T13:02:49;21.40;99.90
15819;DHT22;8010;53.986;12.106;2022-10-16T13:08:05;21.50;99.90
15819;DHT22;8010;53.986;12.106;2022-10-16T13:10:55;21.40;99.90
15819;DHT22;8010;53.986;12.106;2022-10-16T13:13:59;20.80;99.90
15819;DHT22;8010;53.986;12.106;2022-10-16T13:22:40;19.70;99.90
15819;DHT22;8010;53.986;12.106;2022-10-16T13:25:31;19.50;99.90
15819;DHT22;8010;53.986;12.106;2022-10-16T13:28:04;19.40;99.90
15819;DHT22;8010;53.986;12.106;2022-10-16T13:30:37;19.40;99.90
15819;DHT22;8010;53.986;12.106;2022-10-16T13:33:12;19.40;99.90
15819;DHT22;8010;53.986;12.106;2022-10-16T13:35:47;19.30;99.90
15819;DHT22;8010;53.986;12.106;2022-10-16T13:38:16;19.30;99.90
15819;DHT22;8010;53.986;12.106;2022-10-16T13:40:52;19.40;99.90
15819;DHT22;8010;53.986;12.106;2022-10-16T13:43:21;19.50;99.90
15819;DHT22;8010;53.986;12.106;2022-10-16T13:46:05;19.40;99.90
15819;DHT22;8010;53.986;12.106;2022-10-16T13:48:32;19.20;99.90
15819;DHT22;8010;53.986;12.106;2022-10-16T13:51:00;19.30;99.90
15819;DHT22;8010;53.986;12.106;2022-10-16T13:53:25;19.50;99.90
15819;DHT22;8010;53.986;12.106;2022-10-16T13:55:51;19.70;99.90
15819;DHT22;8010;53.986;12.106;2022-10-16T13:58:16;20.00;99.90
15819;DHT22;8010;53.986;12.106;2022-10-16T14:01:05;19.90;99.90
15819;DHT22;8010;53.986;12.106;2022-10-16T14:03:41;19.70;99.90
15819;DHT22;8010;53.986;12.106;2022-10-16T14:06:12;19.70;99.90
15819;DHT22;8010;53.986;12.106;2022-10-16T14:08:43;19.80;99.90
15819;DHT22;8010;53.986;12.106;2022-10-16T14:11:09;19.70;99.90
15819;DHT22;8010;53.986;12.106;2022-10-16T14:13:38;19.60;99.90
15819;DHT22;8010;53.986;12.106;2022-10-16T14:16:09;19.90;99.90
15819;DHT22;8010;53.986;12.106;2022-10-16T14:18:37;20.20;99.90
15819;DHT22;8010;53.986;12.106;2022-10-16T14:21:13;20.60;99.90
15819;DHT22;8010;53.986;12.106;2022-10-16T14:23:40;20.70;99.90
15819;DHT22;8010;53.986;12.106;2022-10-16T14:28:38;20.60;99.90
15819;DHT22;8010;53.986;12.106;2022-10-16T14:31:31;20.50;99.90
15819;DHT22;8010;53.986;12.106;2022-10-16T14:33:57;20.40;99.90
15819;DHT22;8010;53.986;12.106;2022-10-16T14:36:24;20.30;99.90
15819;DHT22;8010;53.986;12.106;2022-10-16T14:41:28;20.10;99.90
15819;DHT22;8010;53.986;12.106;2022-10-16T14:43:56;20.20;99.90
15819;DHT22;8010;53.986;12.106;2022-10-16T14:46:30;20.20;99.90
15819;DHT22;8010;53.986;12.106;2022-10-16T14:49:04;20.20;99.90
15819;DHT22;8010;53.986;12.106;2022-10-16T14:51:39;20.20;99.90
15819;DHT22;8010;53.986;12.106;2022-10-16T14:54:10;20.20;99.90
15819;DHT22;8010;53.986;12.106;2022-10-16T15:01:45;19.70;99.90
15819;DHT22;8010;53.986;12.106;2022-10-16T15:04:12;19.50;99.90
15819;DHT22;8010;53.986;12.106;2022-10-16T15:06:39;19.30;99.90
15819;DHT22;8010;53.986;12.106;2022-10-16T15:09:04;19.10;99.90
15819;DHT22;8010;53.986;12.106;2022-10-16T15:11:32;18.90;99.90
15819;DHT22;8010;53.986;12.106;2022-10-16T15:13:58;18.80;99.90
15819;DHT22;8010;53.986;12.106;2022-10-16T15:16:24;18.60;99.90
15819;DHT22;8010;53.986;12.106;2022-10-16T15:18:49;18.50;99.90
15819;DHT22;8010;53.986;12.106;2022-10-16T15:21:29;18.40;99.90
15819;DHT22;8010;53.986;12.106;2022-10-16T15:23:56;18.30;99.90
15819;DHT22;8010;53.986;12.106;2022-10-16T15:26:26;18.50;99.90
15819;DHT22;8010;53.986;12.106;2022-10-16T15:28:52;18.70;99.90
15819;DHT22;8010;53.986;12.106;2022-10-16T15:31:18;18.90;99.90
15819;DHT22;8010;53.986;12.106;2022-10-16T15:33:44;18.80;99.90
15819;DHT22;8010;53.986;12.106;2022-10-16T15:36:13;18.70;99.90
15819;DHT22;8010;53.986;12.106;2022-10-16T15:38:38;18.60;99.90
15819;DHT22;8010;53.986;12.106;2022-10-16T15:41:04;18.60;99.90
15819;DHT22;8010;53.986;12.106;2022-10-16T15:43:29;18.60;99.90
15819;DHT22;8010;53.986;12.106;2022-10-16T15:46:03;18.50;99.90
15819;DHT22;8010;53.986;12.106;2022-10-16T15:48:30;18.20;99.90
15819;DHT22;8010;53.986;12.106;2022-10-16T15:50:56;18.00;99.90
15819;DHT22;8010;53.986;12.106;2022-10-16T15:53:22;17.90;99.90
15819;DHT22;8010;53.986;12.106;2022-10-16T15:55:47;17.80;99.90
15819;DHT22;8010;53.986;12.106;2022-10-16T15:58:13;17.60;99.90
15819;DHT22;8010;53.986;12.106;2022-10-16T16:00:38;17.50;99.90
15819;DHT22;8010;53.986;12.106;2022-10-16T16:03:04;17.40;99.90
15819;DHT22;8010;53.986;12.106;2022-10-16T16:05:30;17.30;99.90
15819;DHT22;8010;53.986;12.106;2022-10-16T16:07:56;17.20;99.90
15819;DHT22;8010;53.986;12.106;2022-10-16T16:10:22;17.10;99.90
15819;DHT22;8010;53.986;12.106;2022-10-16T16:12:48;16.90;99.90
15819;DHT22;8010;53.986;12.106;2022-10-16T16:15:19;16.90;99.90
15819;DHT22;8010;53.986;12.106;2022-10-16T16:17:45;16.80;99.90
15819;DHT22;8010;53.986;12.106;2022-10-16T16:20:11;16.70;99.90
15819;DHT22;8010;53.986;12.106;2022-10-16T16:22:37;16.70;99.90
15819;DHT22;8010;53.986;12.106;2022-10-16T16:25:03;16.50;99.90
15819;DHT22;8010;53.986;12.106;2022-10-16T16:27:29;16.40;99.90
15819;DHT22;8010;53.986;12.106;2022-10-16T16:29:58;16.30;99.90
15819;DHT22;8010;53.986;12.106;2022-10-16T16:32:23;16.10;99.90
15819;DHT22;8010;53.986;12.106;2022-10-16T16:34:49;16.00;99.90
15819;DHT22;8010;53.986;12.106;2022-10-16T16:37:14;15.90;99.90
15819;DHT22;8010;53.986;12.106;2022-10-16T16:39:40;15.80;99.90
15819;DHT22;8010;53.986;12.106;2022-10-16T16:42:06;15.80;99.90
15819;DHT22;8010;53.986;12.106;2022-10-16T16:44:33;15.70;99.90
15819;DHT22;8010;53.986;12.106;2022-10-16T16:46:58;15.60;99.90
15819;DHT22;8010;53.986;12.106;2022-10-16T16:49:24;15.60;99.90
15819;DHT22;8010;53.986;12.106;2022-10-16T16:51:49;15.50;99.90
15819;DHT22;8010;53.986;12.106;2022-10-16T16:54:15;15.50;99.90
15819;DHT22;8010;53.986;12.106;2022-10-16T16:56:41;15.40;99.90
15819;DHT22;8010;53.986;12.106;2022-10-16T16:59:13;15.40;99.90
15819;DHT22;8010;53.986;12.106;2022-10-16T17:01:40;15.30;99.90
15819;DHT22;8010;53.986;12.106;2022-10-16T17:04:06;15.30;99.90
15819;DHT22;8010;53.986;12.106;2022-10-16T17:06:31;15.30;99.90
15819;DHT22;8010;53.986;12.106;2022-10-16T17:08:58;15.30;99.90
15819;DHT22;8010;53.986;12.106;2022-10-16T17:11:25;15.10;99.90
15819;DHT22;8010;53.986;12.106;2022-10-16T17:13:52;15.10;99.90
15819;DHT22;8010;53.986;12.106;2022-10-16T17:16:20;15.00;99.90
15819;DHT22;8010;53.986;12.106;2022-10-16T17:18:46;14.90;99.90
15819;DHT22;8010;53.986;12.106;2022-10-16T17:21:12;14.80;99.90
15819;DHT22;8010;53.986;12.106;2022-10-16T17:23:38;14.80;99.90